Flight Track Log - Related Links

Times and Time Zones

All times are in EDT time to prevent confusion due to time zone crossing. See the EJA831 flight status page for this flight to view local times or setup timezone preferences in your user account.

Time Position Orientation Groundspeed Altitude Reporting Facility
EDT Latitude Longitude Course Direction KTS MPH feet Rate Location/Type
Sun 08:26:52 AM 41.0500 -73.7333 194° South 202 232 4,100  Level New York TRACON
Sun 08:27:58 AM 41.0333 -73.8333 258° West 269 310 8,400 3,238 Climbing New York TRACON
Sun 08:28:58 AM 40.9667 -73.8667 201° Southwest 306 352 10,900 1,632 Climbing New York TRACON
Sun 08:29:52 AM 40.9000 -73.9167 210° Southwest 327 376 11,500 632 Climbing New York TRACON
Sun 08:30:52 AM 40.8000 -73.9667 201° Southwest 335 386 12,100 300 Climbing New York TRACON
Sun 08:31:52 AM 40.7167 -74.0167 204° Southwest 341 392 12,100  Level New York TRACON
Sun 08:32:00 AM 40.4825 -73.9947 194° South  Level FlightAware Approximate
Sun 08:32:58 AM 40.6500 -74.1167 229° Southwest 333 383 12,100  Level New York TRACON
Sun 08:33:52 AM 40.5667 -74.1333 189° South 343 395 13,400 1,829 Climbing New York TRACON
Sun 08:35:42 AM 40.3897 -74.1717 189° South 379 436 17,100 2,036 Climbing New York Center
Sun 08:36:40 AM 40.2892 -74.1911 188° South 379 436 19,100 2,067 Climbing New York Center
Sun 08:37:41 AM 40.1781 -74.2156 190° South 386 444 21,200 1,737 Climbing New York Center
Sun 08:39:12 AM 40.0186 -74.2506 190° South 410 472 23,500 1,550 Climbing Washington Center
Sun 08:40:12 AM 39.9214 -74.3308 212° Southwest 408 470 25,100 1,537 Climbing Washington Center
Sun 08:41:13 AM 39.8306 -74.4189 217° Southwest 408 470 26,600 1,388 Climbing Washington Center
Sun 08:42:13 AM 39.7483 -74.5228 224° Southwest 413 475 27,900 706 Climbing Washington Center
Sun 08:43:12 AM 39.6681 -74.6292 226° Southwest 413 475 28,000 50 Climbing Washington Center
Sun 08:44:12 AM 39.5856 -74.7381 226° Southwest 418 481 28,000  Level Washington Center
Sun 08:45:14 AM 39.5050 -74.8464 226° Southwest 418 481 28,000  Level Washington Center
Sun 08:46:11 AM 39.4242 -74.9522 225° Southwest 418 481 28,000  Level Washington Center
Sun 08:47:13 AM 39.3436 -75.0575 225° Southwest 418 481 28,000  Level Washington Center
Sun 08:48:11 AM 39.2417 -75.1281 208° Southwest 418 481 28,000  Level Washington Center
Sun 08:49:12 AM 39.1272 -75.1850 201° Southwest 418 481 28,000 -148 Level Washington Center
Sun 08:50:13 AM 39.0128 -75.2336 198° South 430 495 27,700 -793 Descending Washington Center
Sun 08:51:13 AM 38.8983 -75.2850 199° South 436 502 26,400 -1,240 Descending Washington Center
Sun 08:52:14 AM 38.7878 -75.3281 197° South 436 502 25,200 -1,140 Descending Washington Center
Sun 08:53:14 AM 38.6775 -75.3736 198° South 425 489 24,100 -615 Descending Washington Center
Sun 08:54:11 AM 38.5711 -75.4192 199° South 420 483 24,000 -51 Descending Washington Center
Sun 08:55:12 AM 38.4608 -75.4617 197° South 420 483 24,000 -645 Level Washington Center
Sun 08:56:12 AM 38.3692 -75.5333 212° Southwest 393 452 22,700 -1,475 Descending Washington Center
Sun 08:57:14 AM 38.3086 -75.6578 238° Southwest 381 438 21,000 -1,672 Descending Washington Center
Sun 08:58:14 AM 38.2606 -75.7717 242° Southwest 374 430 19,300 -1,576 Descending Washington Center
Sun 08:59:12 AM 38.2144 -75.8850 243° Southwest 374 430 17,900 -1,576 Descending Washington Center
Sun 09:00:12 AM 38.1661 -75.9931 240° Southwest 368 423 16,200 -950 Descending Washington Center
Sun 09:01:12 AM 38.1200 -76.1039 242° Southwest 362 417 16,000 -99 Descending Washington Center
Sun 09:02:13 AM 38.0714 -76.2169 241° Southwest 362 417 16,000 -98 Level Washington Center
Sun 09:03:14 AM 38.0228 -76.3219 240° Southwest 362 417 15,800 -992 Descending Washington Center
Sun 09:04:14 AM 37.9700 -76.4242 237° Southwest 357 411 14,000 -1,678 Descending Washington Center
Sun 09:05:12 AM 37.9256 -76.5106 237° Southwest 346 398 12,500 -1,576 Descending Washington Center
Sun 09:06:12 AM 37.8769 -76.6072 238° Southwest 334 384 10,900 -1,250 Descending Washington Center
Sun 09:07:12 AM 37.8303 -76.6986 237° Southwest 328 377 10,000 -900 Descending Washington Center
Sun 09:08:12 AM 37.7856 -76.7822 236° Southwest 311 358 9,100 -1,350 Descending Washington Center
Sun 09:09:12 AM 37.7597 -76.8711 250° West 286 329 7,300 -1,770 Descending Washington Center
Sun 09:10:14 AM 37.7317 -76.9625 249° West 275 316 5,500 -1,721 Descending Washington Center
Sun 09:11:14 AM 37.7036 -77.0486 248° West 275 316 3,800 -1,271 Descending Washington Center
Sun 09:12:12 AM 37.6775 -77.1319 248° West 270 311 3,000 -407 Descending Washington Center
Sun 09:13:12 AM 37.6553 -77.2181 252° West 270 311 3,000 -610 Level Washington Center
Sun 09:15:19 AM 37.5833 -77.3500 235° Southwest 178 205 1,100 -674 Descending Potomac TRACON
Sun 09:16:19 AM 37.5500 -77.3500 180° South 146 168 900 -421 Descending Potomac TRACON
Sun 09:17:13 AM 37.5167 -77.3333 158° South 109 125 300 -667 Descending Potomac TRACON

Login

Don't have an account? Register now (free) for customized features, flight alerts, and more!